ローマ/フィウミチーノ の空港の天気 - METARとTAF

ローマ・レオナルド・ダ・ビンチ国際空港 ( LIRF / FCO ) - イタリア ローマ
飛行場実況気象(Metar)
観測時間07/28 14:20 CEST (07/28 12:20 UTC)
風向・風速南西 6m/s
視程10km以上
天気現象
全天の8割程度の雲 雲底高度 910m
気温28℃
湿度62%
気圧1015hPa
METARLIRF 281220Z 22012KT 180V250 9999 BKN030 28/20 Q1015 NOSIG
過去の天気等 Google飛行場航空写真 Wunderground天気予報

過去48時間のMETAR

飛行場予報(TAF)
発表時間: 7/28 13:00 CEST (7/28 11:00 UTC)
予報対象時間: 28日14時 CEST ~ 29日20時 CEST
風向・風速南西 6m/s
視程10km以上
少しの雲 雲底高度 610m
28日20時 CEST ~ 28日22時 CEST に徐々に
風向・風速不定 2m/s
29日10時 CEST ~ 29日12時 CEST に徐々に
風向・風速南 6m/s
TAF LIRF 281100Z 2812/2918 22012KT 9999 FEW020
BECMG 2818/2820 VRB04KT
BECMG 2908/2910 19012KT